Time;durP1;ratioP1;P1;durP2;ratioP2;P2;SDS_P1;SDS_P2;PMS_P1;PMS_P2;Temp;Humidity;BMP_temperature;BMP_pressure;BME280_temperature;BME280_humidity;BME280_pressure;Samples;Min_cycle;Max_cycle;Signal;HPM_P1;HPM_P2
2022/08/21 00:01:15;;;;;;;9.18;3.60;;;;;;;15.62;88.85;101625.78;5032745;28;20404;-70
2022/08/21 00:03:41;;;;;;;10.15;3.75;;;;;;;15.74;88.79;101628.66;5034880;28;20480;-70
2022/08/21 00:06:06;;;;;;;8.18;3.88;;;;;;;15.59;88.76;101626.19;5034802;28;20040;-71
2022/08/21 00:08:31;;;;;;;11.80;4.07;;;;;;;15.57;88.69;101610.75;5034819;28;20508;-71
2022/08/21 00:10:57;;;;;;;10.32;4.10;;;;;;;15.60;88.87;101614.78;5034738;28;20454;-70
2022/08/21 00:13:23;;;;;;;8.45;4.07;;;;;;;15.71;88.52;101623.84;5033386;28;20029;-70
2022/08/21 00:15:49;;;;;;;10.13;4.20;;;;;;;15.67;88.50;101627.78;5033310;28;20026;-70
2022/08/21 00:18:16;;;;;;;10.98;4.30;;;;;;;15.68;88.57;101619.00;5034615;28;20049;-70
2022/08/21 00:20:43;;;;;;;9.55;4.03;;;;;;;15.67;88.54;101622.59;5034551;28;20025;-72
2022/08/21 00:23:09;;;;;;;9.45;4.40;;;;;;;15.60;89.20;101627.00;5034684;28;20036;-70
2022/08/21 00:25:35;;;;;;;12.50;4.13;;;;;;;15.41;90.32;101613.75;5034474;28;20056;-70
2022/08/21 00:28:01;;;;;;;10.88;4.18;;;;;;;15.34;91.06;101608.53;5034322;28;20029;-71
2022/08/21 00:30:27;;;;;;;8.52;4.03;;;;;;;15.28;91.12;101605.94;5033050;28;20018;-70
2022/08/21 00:32:55;;;;;;;10.23;4.00;;;;;;;15.42;91.17;101614.53;5034383;28;20111;-70
2022/08/21 00:35:26;;;;;;;8.00;3.60;;;;;;;15.57;90.22;101604.75;5034233;28;20033;-71
2022/08/21 00:37:52;;;;;;;9.70;4.35;;;;;;;15.62;89.56;101607.53;5034352;28;20029;-70
2022/08/21 00:40:21;;;;;;;9.05;3.85;;;;;;;15.66;89.62;101600.94;5034376;28;20370;-70
2022/08/21 00:42:47;;;;;;;7.72;3.80;;;;;;;15.60;89.48;101595.75;5034081;28;20040;-70
2022/08/21 00:45:13;;;;;;;8.68;3.78;;;;;;;15.46;90.16;101600.13;5032859;28;20104;-70
2022/08/21 00:47:38;;;;;;;12.40;4.35;;;;;;;15.53;90.42;101603.53;5032640;28;20026;-70
2022/08/21 00:50:06;;;;;;;10.30;3.97;;;;;;;15.61;90.26;101607.75;5034024;28;20056;-70
2022/08/21 00:52:35;;;;;;;7.60;4.65;;;;;;;15.60;90.16;101601.75;5032623;28;20051;-70
2022/08/21 00:55:01;;;;;;;9.30;3.80;;;;;;;15.62;89.79;101610.16;5032647;28;20035;-70
2022/08/21 00:57:35;;;;;;;8.55;4.05;;;;;;;15.52;90.25;101607.94;5034002;28;20388;-70
2022/08/21 01:00:08;;;;;;;9.73;4.25;;;;;;;15.26;91.79;101598.31;5032834;28;20068;-69
2022/08/21 01:02:34;;;;;;;7.75;4.53;;;;;;;15.26;91.89;101610.53;5032523;28;20112;-70
2022/08/21 01:04:59;;;;;;;9.57;4.57;;;;;;;15.29;91.60;101600.50;5033762;28;20517;-70
2022/08/21 01:07:25;;;;;;;11.40;3.95;;;;;;;15.19;91.86;101605.31;5033627;28;20477;-70
2022/08/21 01:09:51;;;;;;;10.68;4.03;;;;;;;15.40;91.50;101599.13;5033543;28;20071;-69
2022/08/21 01:12:17;;;;;;;11.40;4.30;;;;;;;15.36;90.95;101605.72;5032315;28;20500;-70
2022/08/21 01:14:43;;;;;;;10.88;4.65;;;;;;;15.27;91.48;101607.72;5032346;28;20535;-69
2022/08/21 01:17:11;;;;;;;7.55;3.80;;;;;;;15.22;91.26;101598.88;5032307;28;20051;-69
2022/08/21 01:19:36;;;;;;;12.13;4.25;;;;;;;15.20;92.61;101606.91;5033350;28;20120;-70
2022/08/21 01:22:02;;;;;;;8.10;3.88;;;;;;;15.33;91.77;101604.34;5033512;28;20100;-70
2022/08/21 01:24:28;;;;;;;9.07;3.72;;;;;;;15.40;91.06;101608.75;5033555;28;20031;-71
2022/08/21 01:26:54;;;;;;;13.00;4.07;;;;;;;15.44;90.57;101604.72;5032057;28;20469;-70
2022/08/21 01:29:44;;;;;;;9.70;4.13;;;;;;;15.47;91.94;101612.16;5033268;28;20033;-71
2022/08/21 01:32:17;;;;;;;13.63;3.90;;;;;;;15.56;90.65;101605.75;5031956;28;20025;-71
2022/08/21 01:34:45;;;;;;;8.07;3.90;;;;;;;15.29;91.06;101603.13;5033352;28;20026;-71
2022/08/21 01:37:11;;;;;;;11.10;4.10;;;;;;;15.36;91.29;101610.94;5033220;28;20112;-71
2022/08/21 01:39:37;;;;;;;10.70;4.22;;;;;;;15.38;91.42;101600.31;5033133;28;20473;-70
2022/08/21 01:42:03;;;;;;;9.13;4.50;;;;;;;15.11;92.13;101595.88;5033134;28;20025;-69
2022/08/21 01:44:29;;;;;;;8.43;3.95;;;;;;;15.09;93.05;101605.66;5033190;28;20033;-69
2022/08/21 01:46:55;;;;;;;10.77;4.18;;;;;;;15.16;92.22;101597.06;5033275;28;20032;-70
2022/08/21 01:49:20;;;;;;;8.50;4.30;;;;;;;15.21;92.51;101600.69;5033163;28;20092;-70
2022/08/21 01:51:46;;;;;;;9.32;4.03;;;;;;;15.12;92.66;101599.28;5032940;28;20086;-70
2022/08/21 01:54:11;;;;;;;9.60;4.03;;;;;;;15.21;92.57;101592.88;5032959;28;20028;-70
2022/08/21 01:56:39;;;;;;;11.18;4.13;;;;;;;15.08;92.79;101600.69;5033307;28;20036;-69
2022/08/21 01:59:05;;;;;;;9.27;4.18;;;;;;;15.05;92.93;101594.06;5033096;28;20100;-70
2022/08/21 02:01:30;;;;;;;8.70;4.13;;;;;;;15.05;93.33;101588.84;5032033;28;20485;-69
2022/08/21 02:03:56;;;;;;;10.88;4.13;;;;;;;15.15;93.78;101580.66;5033007;28;20025;-69
2022/08/21 02:06:21;;;;;;;7.57;3.83;;;;;;;15.02;93.55;101580.66;5032959;28;20026;-69
2022/08/21 02:08:47;;;;;;;9.82;4.00;;;;;;;15.03;93.72;101582.25;5032886;28;20151;-69
2022/08/21 02:11:12;;;;;;;12.85;4.00;;;;;;;15.10;93.36;101586.47;5032908;28;20115;-69
2022/08/21 02:13:38;;;;;;;10.75;4.28;;;;;;;15.00;93.49;101582.63;5031542;28;20032;-70
2022/08/21 02:16:04;;;;;;;9.90;4.45;;;;;;;15.02;94.13;101589.25;5032778;28;20040;-70
2022/08/21 02:18:29;;;;;;;12.43;4.53;;;;;;;15.02;93.50;101580.66;5031589;28;20028;-69
2022/08/21 02:20:54;;;;;;;13.23;4.18;;;;;;;15.02;93.74;101584.03;5032774;28;20071;-69
2022/08/21 02:23:20;;;;;;;9.70;4.05;;;;;;;14.86;95.32;101579.97;5032794;28;20025;-69
2022/08/21 02:25:45;;;;;;;10.10;4.10;;;;;;;14.91;94.45;101578.59;5035818;28;20056;-69
2022/08/21 02:28:13;;;;;;;8.77;4.15;;;;;;;14.80;94.73;101569.56;5036724;28;20060;-70
2022/08/21 02:30:43;;;;;;;8.88;3.88;;;;;;;14.87;95.13;101573.78;5036645;28;20053;-69
2022/08/21 02:33:10;;;;;;;9.45;4.22;;;;;;;14.99;94.48;101568.00;5035331;28;20025;-69
2022/08/21 02:35:36;;;;;;;10.88;4.35;;;;;;;14.95;93.92;101569.41;5035323;28;20389;-70
2022/08/21 02:38:09;;;;;;;7.82;4.20;;;;;;;14.98;94.70;101569.00;5036465;28;20021;-70
2022/08/21 02:40:37;;;;;;;12.15;4.20;;;;;;;14.80;95.20;101556.56;5036383;28;20025;-70
2022/08/21 02:43:04;;;;;;;8.57;4.53;;;;;;;14.66;96.25;101563.50;5036403;28;20026;-70
2022/08/21 02:45:30;;;;;;;9.48;4.40;;;;;;;14.68;96.90;101561.53;5035114;28;20099;-70
2022/08/21 02:48:08;;;;;;;8.13;4.45;;;;;;;14.70;96.16;101569.91;5036125;28;20384;-70
2022/08/21 02:50:39;;;;;;;12.30;4.70;;;;;;;14.76;96.34;101568.31;5036192;28;20036;-70
2022/08/21 02:53:06;;;;;;;13.23;4.85;;;;;;;14.84;95.62;101568.16;5034836;28;20029;-69
2022/08/21 02:55:33;;;;;;;10.48;4.47;;;;;;;14.83;96.46;101561.38;5034926;28;20108;-69
2022/08/21 02:57:59;;;;;;;12.85;4.60;;;;;;;14.79;96.97;101557.56;5036089;28;20071;-70
2022/08/21 03:00:28;;;;;;;9.27;4.18;;;;;;;14.84;96.02;101555.94;5036204;28;20079;-70
2022/08/21 03:02:55;;;;;;;11.35;4.32;;;;;;;14.80;96.42;101561.75;5034649;28;20064;-70
2022/08/21 03:05:20;;;;;;;9.18;4.43;;;;;;;14.78;96.82;101558.53;5034703;28;20026;-69
2022/08/21 03:07:47;;;;;;;13.98;4.70;;;;;;;14.71;96.91;101561.13;5035870;28;20082;-69
2022/08/21 03:10:14;;;;;;;12.90;5.10;;;;;;;14.70;96.85;101556.91;5036069;28;20127;-68
2022/08/21 03:12:39;;;;;;;9.98;4.80;;;;;;;14.73;96.82;101548.72;5035847;28;20021;-69
2022/08/21 03:15:10;;;;;;;10.63;4.70;;;;;;;14.72;97.48;101551.50;5034648;28;20033;-69
2022/08/21 03:17:37;;;;;;;12.45;4.50;;;;;;;14.56;97.51;101519.66;5035776;28;20071;-71
2022/08/21 03:20:04;;;;;;;10.70;4.63;;;;;;;14.68;97.88;101540.72;5035894;28;20040;-69
2022/08/21 03:22:30;;;;;;;13.20;4.97;;;;;;;14.65;97.86;101546.31;5035631;28;20059;-70
2022/08/21 03:24:56;;;;;;;10.82;5.00;;;;;;;14.63;98.63;101543.88;5034338;28;20065;-69
2022/08/21 03:27:22;;;;;;;9.07;4.95;;;;;;;14.60;98.64;101548.69;5034319;28;20025;-70
2022/08/21 03:29:47;;;;;;;13.27;4.88;;;;;;;14.70;98.81;101545.69;5035579;28;20538;-69
2022/08/21 03:32:12;;;;;;;11.30;4.90;;;;;;;14.71;98.01;101537.72;5035827;28;20109;-70
2022/08/21 03:34:38;;;;;;;11.85;5.07;;;;;;;14.75;97.86;101548.53;5034224;28;20469;-69
2022/08/21 03:37:05;;;;;;;9.45;5.40;;;;;;;14.81;97.13;101545.94;5032864;28;20037;-69
2022/08/21 03:39:31;;;;;;;11.50;5.40;;;;;;;14.79;97.16;101550.56;5035425;28;20029;-69
2022/08/21 03:41:56;;;;;;;11.55;5.40;;;;;;;14.78;97.16;101541.13;5035337;28;20376;-69
2022/08/21 03:44:21;;;;;;;11.23;5.28;;;;;;;14.79;96.56;101540.16;5035320;28;20024;-69
2022/08/21 03:46:47;;;;;;;11.30;5.00;;;;;;;14.76;97.35;101532.72;5033929;28;20025;-69
2022/08/21 03:49:13;;;;;;;11.05;5.18;;;;;;;14.61;97.92;101539.88;5033841;28;20128;-70
2022/08/21 03:51:38;;;;;;;12.32;5.18;;;;;;;14.57;98.59;101533.47;5034984;28;20046;-69
2022/08/21 03:54:03;;;;;;;11.60;5.22;;;;;;;14.47;98.64;101538.19;5035012;28;20021;-70
2022/08/21 03:56:29;;;;;;;16.85;6.45;;;;;;;14.31;100.00;101526.31;5033804;28;20083;-70
2022/08/21 03:58:55;;;;;;;17.27;5.30;;;;;;;14.40;99.29;101533.75;5035138;28;20412;-69
2022/08/21 04:01:21;;;;;;;9.27;4.95;;;;;;;14.33;99.74;101532.94;5033832;28;20473;-69
2022/08/21 04:03:46;;;;;;;16.55;5.53;;;;;;;14.35;99.51;101533.53;5035125;28;20031;-69
2022/08/21 04:06:11;;;;;;;10.88;5.13;;;;;;;14.36;99.69;101534.34;5033640;28;20456;-70
2022/08/21 04:08:37;;;;;;;13.30;5.13;;;;;;;14.20;100.00;101531.06;5033427;28;20022;-70
2022/08/21 04:11:02;;;;;;;10.68;5.38;;;;;;;14.18;100.00;101533.06;5034834;28;20029;-69
2022/08/21 04:13:28;;;;;;;12.68;5.15;;;;;;;14.10;100.00;101532.44;5034760;28;20100;-69
2022/08/21 04:15:54;;;;;;;8.95;5.47;;;;;;;14.13;100.00;101525.03;5033380;28;20410;-70
2022/08/21 04:18:20;;;;;;;11.00;5.25;;;;;;;14.08;100.00;101534.41;5034697;28;20022;-69
2022/08/21 04:20:50;;;;;;;13.55;5.57;;;;;;;14.11;100.00;101534.03;5033305;28;20032;-69
2022/08/21 04:23:16;;;;;;;9.57;5.00;;;;;;;13.99;100.00;101529.34;5034769;28;20124;-69
2022/08/21 04:25:41;;;;;;;11.25;5.75;;;;;;;14.01;100.00;101531.75;5033326;28;20041;-70
2022/08/21 04:28:06;;;;;;;15.25;5.50;;;;;;;14.04;100.00;101538.38;5034455;28;20032;-70
2022/08/21 04:30:32;;;;;;;13.77;5.50;;;;;;;13.92;100.00;101538.09;5034517;28;20184;-68
2022/08/21 04:32:58;;;;;;;13.50;5.78;;;;;;;13.98;100.00;101538.16;5032996;28;20080;-69
2022/08/21 04:35:25;;;;;;;15.02;5.30;;;;;;;14.00;100.00;101540.53;5033165;28;20045;-70
2022/08/21 04:37:51;;;;;;;11.98;5.55;;;;;;;14.16;100.00;101542.84;5034221;28;20473;-69
2022/08/21 04:40:19;;;;;;;13.25;5.88;;;;;;;14.22;99.95;101539.47;5034353;28;20037;-69
2022/08/21 04:42:53;;;;;;;10.43;5.00;;;;;;;14.26;100.00;101547.69;5032940;28;20025;-69
2022/08/21 04:45:21;;;;;;;10.10;5.18;;;;;;;14.26;99.75;101554.69;5034262;28;20033;-69
2022/08/21 04:47:52;;;;;;;12.57;5.30;;;;;;;14.23;100.00;101546.28;5032752;28;20052;-78
2022/08/21 04:50:18;;;;;;;8.95;5.10;;;;;;;14.17;99.91;101544.44;5034527;28;20392;-78
2022/08/21 04:52:44;;;;;;;14.30;5.32;;;;;;;14.27;100.00;101549.31;5033212;28;20029;-79
2022/08/21 04:55:10;;;;;;;9.55;5.15;;;;;;;14.37;99.84;101554.16;5034055;28;20480;-78
2022/08/21 04:57:35;;;;;;;19.27;5.82;;;;;;;14.51;98.97;101566.22;5033426;28;20017;-78
2022/08/21 05:00:03;;;;;;;13.43;5.38;;;;;;;14.64;98.36;101558.50;5033179;28;20029;-79
2022/08/21 05:02:29;;;;;;;13.40;5.50;;;;;;;14.62;97.36;101564.91;5033190;28;20029;-80
2022/08/21 05:04:55;;;;;;;11.00;5.03;;;;;;;14.59;98.45;101563.50;5032868;28;20026;-79
2022/08/21 05:07:26;;;;;;;16.88;4.97;;;;;;;14.46;99.20;101555.59;5032765;28;20473;-79
2022/08/21 05:09:52;;;;;;;12.02;5.32;;;;;;;14.42;99.89;101562.19;5036265;28;20049;-79
2022/08/21 05:12:18;;;;;;;13.50;5.95;;;;;;;14.29;100.00;101555.09;5033884;28;20083;-79
2022/08/21 05:14:44;;;;;;;14.60;6.00;;;;;;;14.34;100.00;101547.53;5043264;28;20037;-79
2022/08/21 05:17:09;;;;;;;14.07;6.03;;;;;;;14.47;100.00;101561.59;5055011;28;20033;-79
2022/08/21 05:19:35;;;;;;;14.85;6.18;;;;;;;14.50;100.00;101567.22;5049589;28;20380;-79
2022/08/21 05:22:00;;;;;;;27.27;7.68;;;;;;;14.35;100.00;101562.13;5034762;28;20029;-78
2022/08/21 05:24:26;;;;;;;17.15;6.18;;;;;;;14.34;100.00;101564.94;5034510;28;20025;-78
2022/08/21 05:26:52;;;;;;;11.55;6.00;;;;;;;14.39;100.00;101575.56;5038529;28;20037;-80
2022/08/21 05:29:18;;;;;;;16.27;6.85;;;;;;;14.38;100.00;101566.94;5032424;28;20022;-80
2022/08/21 05:31:45;;;;;;;16.90;6.47;;;;;;;14.48;100.00;101568.41;5033446;28;20021;-79
2022/08/21 05:34:11;;;;;;;14.32;6.50;;;;;;;14.52;100.00;101567.03;5034029;28;20021;-79
2022/08/21 05:36:36;;;;;;;12.13;6.28;;;;;;;14.69;100.00;101572.72;5034135;28;20407;-78
2022/08/21 05:39:02;;;;;;;18.05;6.50;;;;;;;14.63;100.00;101571.69;5034064;28;20018;-79
2022/08/21 05:41:27;;;;;;;13.98;6.32;;;;;;;14.65;100.00;101567.91;5034572;28;20488;-79
2022/08/21 05:43:53;;;;;;;11.90;5.90;;;;;;;14.88;100.00;101566.78;5034067;28;20025;-78
2022/08/21 05:46:18;;;;;;;15.85;6.25;;;;;;;15.08;98.73;101572.84;5032303;28;20025;-79
2022/08/21 05:48:43;;;;;;;16.33;6.00;;;;;;;15.20;98.55;101565.25;5033459;28;20030;-77
2022/08/21 05:51:11;;;;;;;12.95;5.80;;;;;;;15.48;97.27;101578.09;5033157;28;20561;-79
2022/08/21 05:53:38;;;;;;;15.75;5.32;;;;;;;15.60;96.51;101572.28;5033970;28;20423;-78
2022/08/21 05:56:04;;;;;;;17.08;5.82;;;;;;;15.81;95.80;101577.31;5032562;28;20488;-79
2022/08/21 05:58:30;;;;;;;16.20;5.28;;;;;;;16.04;95.28;101576.09;5033941;28;20089;-79
2022/08/21 06:00:58;;;;;;;13.60;5.18;;;;;;;16.60;92.80;101565.88;5037304;28;20558;-78
2022/08/21 06:03:28;;;;;;;11.60;4.63;;;;;;;18.93;82.50;101556.78;5037431;28;20053;-79
2022/08/21 06:05:54;;;;;;;14.32;4.68;;;;;;;23.73;58.98;101560.03;5037914;28;20075;-79
2022/08/21 06:08:21;;;;;;;12.32;3.95;;;;;;;26.26;51.94;101561.41;5037846;28;20412;-79
2022/08/21 06:10:48;;;;;;;11.48;4.05;;;;;;;26.42;50.67;101556.84;5037661;28;20103;-80
2022/08/21 06:13:15;;;;;;;13.93;3.75;;;;;;;26.99;47.65;101559.91;5036687;28;20112;-80
2022/08/21 06:15:40;;;;;;;11.15;4.18;;;;;;;25.20;52.21;101553.53;5037252;28;20041;-80
2022/08/21 06:18:06;;;;;;;11.00;4.10;;;;;;;21.37;65.12;101556.75;5037721;28;20386;-79
2022/08/21 06:20:32;;;;;;;15.27;4.07;;;;;;;23.68;59.45;101567.09;5037529;28;20033;-80
2022/08/21 06:22:57;;;;;;;9.98;3.90;;;;;;;25.83;50.94;101568.22;5037490;28;20018;-80
2022/08/21 06:25:23;;;;;;;7.82;3.28;;;;;;;26.88;49.09;101553.09;5037369;28;20029;-79
2022/08/21 06:27:48;;;;;;;10.65;3.60;;;;;;;28.32;46.11;101559.22;5036502;28;20031;-80
2022/08/21 06:30:14;;;;;;;14.15;3.90;;;;;;;27.16;48.67;101554.19;5036611;28;20017;-81
2022/08/21 06:32:39;;;;;;;11.15;3.65;;;;;;;27.96;46.18;101558.91;5036342;28;20074;-81
2022/08/21 06:35:05;;;;;;;11.50;3.65;;;;;;;28.65;44.19;101551.31;5037481;28;20385;-79
2022/08/21 06:37:31;;;;;;;10.70;3.20;;;;;;;29.37;42.78;101552.75;5037272;28;20461;-78
2022/08/21 06:39:56;;;;;;;12.68;3.45;;;;;;;28.63;44.57;101553.50;5037679;28;20033;-79
2022/08/21 06:42:22;;;;;;;11.20;3.27;;;;;;;29.80;41.65;101555.94;5037183;28;20036;-80
2022/08/21 06:44:47;;;;;;;10.63;3.53;;;;;;;27.87;46.11;101556.09;5036587;28;20280;-80
2022/08/21 06:47:13;;;;;;;12.27;3.88;;;;;;;28.92;43.91;101558.59;5038059;28;20029;-80
2022/08/21 06:49:39;;;;;;;11.25;3.50;;;;;;;29.96;41.72;101556.41;5037997;28;20029;-80
2022/08/21 06:52:10;;;;;;;10.55;3.30;;;;;;;30.09;41.63;101546.78;5038538;28;20045;-80
2022/08/21 06:54:35;;;;;;;10.18;3.25;;;;;;;30.22;41.58;101548.69;5038068;28;20056;-80
2022/08/21 06:57:00;;;;;;;15.95;3.40;;;;;;;29.91;41.71;101543.97;5039328;28;20030;-80
2022/08/21 06:59:26;;;;;;;7.97;2.97;;;;;;;30.11;40.77;101548.06;5046183;28;20013;-80
2022/08/21 07:01:51;;;;;;;12.65;3.15;;;;;;;30.37;40.65;101552.88;5051335;28;20056;-75
2022/08/21 07:04:16;;;;;;;11.55;3.03;;;;;;;29.94;41.54;101555.91;5050835;28;20071;-78
2022/08/21 07:06:42;;;;;;;13.88;3.30;;;;;;;29.37;42.92;101552.75;5052322;28;20028;-80
2022/08/21 07:09:07;;;;;;;10.73;3.25;;;;;;;29.99;41.58;101547.81;5052567;28;20030;-81
2022/08/21 07:11:35;;;;;;;10.27;3.20;;;;;;;29.31;42.78;101553.94;5052615;28;20041;-80
2022/08/21 07:14:00;;;;;;;8.88;3.35;;;;;;;30.35;41.23;101544.38;5056301;28;20009;-79
2022/08/21 07:16:26;;;;;;;14.60;4.00;;;;;;;30.06;41.39;101542.06;5057576;28;20040;-78
2022/08/21 07:18:51;;;;;;;10.60;3.40;;;;;;;29.06;43.48;101555.19;5057663;28;20018;-80
2022/08/21 07:21:16;;;;;;;11.57;3.83;;;;;;;29.87;41.54;101550.22;5057929;28;20025;-79
2022/08/21 07:23:46;;;;;;;10.13;3.20;;;;;;;30.02;41.97;101557.09;5059101;28;20037;-80
2022/08/21 07:26:13;;;;;;;11.60;3.28;;;;;;;30.91;40.03;101550.25;5059265;28;20026;-76
2022/08/21 07:28:38;;;;;;;11.90;3.53;;;;;;;29.44;42.68;101561.16;5058390;28;20017;-78
2022/08/21 07:31:04;;;;;;;11.40;3.17;;;;;;;30.40;41.04;101557.59;5060435;28;20081;-80
2022/08/21 07:33:32;;;;;;;11.45;3.50;;;;;;;30.08;41.19;101558.56;5059661;28;20045;-80
2022/08/21 07:35:58;;;;;;;12.18;3.50;;;;;;;29.73;42.31;101563.53;5059665;28;20014;-81
2022/08/21 07:38:24;;;;;;;10.32;3.38;;;;;;;29.80;41.95;101550.59;5059764;28;20033;-73
2022/08/21 07:40:52;;;;;;;11.02;3.22;;;;;;;29.35;43.87;101553.06;5060056;28;20164;-80
2022/08/21 07:43:17;;;;;;;14.60;3.75;;;;;;;28.38;44.74;101564.47;5043652;28;20055;-76
2022/08/21 07:45:45;;;;;;;11.80;3.35;;;;;;;29.46;43.59;101562.44;5035861;28;20492;-73
2022/08/21 07:48:11;;;;;;;13.27;3.63;;;;;;;29.33;43.06;101560.56;5035497;28;20109;-73
2022/08/21 07:50:36;;;;;;;16.17;3.70;;;;;;;29.59;43.79;101568.84;5034501;28;20073;-75
2022/08/21 07:53:02;;;;;;;14.85;3.50;;;;;;;28.65;45.25;101569.13;5034142;28;20018;-72
2022/08/21 07:55:28;;;;;;;13.48;3.63;;;;;;;28.47;46.16;101566.22;5034413;28;20052;-70
2022/08/21 07:57:53;;;;;;;14.48;3.22;;;;;;;29.41;44.24;101557.22;5035600;28;20056;-69
2022/08/21 08:00:22;;;;;;;10.93;3.33;;;;;;;29.24;43.88;101557.78;5035308;28;20036;-71
2022/08/21 08:02:50;;;;;;;12.20;3.47;;;;;;;29.57;43.39;101555.03;5034337;28;20032;-70
2022/08/21 08:05:16;;;;;;;18.35;4.28;;;;;;;27.94;46.77;101553.09;5034080;28;20029;-70
2022/08/21 08:07:42;;;;;;;12.93;3.63;;;;;;;27.92;47.47;101549.94;5035114;28;20022;-70
2022/08/21 08:10:08;;;;;;;13.38;3.30;;;;;;;28.24;46.23;101546.56;5034921;28;20047;-70
2022/08/21 08:12:39;;;;;;;13.68;3.70;;;;;;;27.66;47.96;101550.22;5032682;28;20029;-71
2022/08/21 08:15:06;;;;;;;12.75;4.15;;;;;;;27.58;48.03;101558.78;5032254;28;20484;-71
2022/08/21 08:17:32;;;;;;;11.43;3.75;;;;;;;26.43;51.69;101554.97;5034918;28;20022;-70
2022/08/21 08:19:58;;;;;;;16.42;3.70;;;;;;;25.46;54.36;101556.13;5032984;28;20024;-71
2022/08/21 08:22:23;;;;;;;13.10;3.70;;;;;;;25.62;54.71;101556.88;5033974;28;20504;-69
2022/08/21 08:24:50;;;;;;;14.57;3.80;;;;;;;24.94;57.07;101555.34;5033398;28;20030;-70
2022/08/21 08:27:16;;;;;;;13.38;3.90;;;;;;;24.78;58.02;101553.78;5034569;28;20028;-70
2022/08/21 08:29:42;;;;;;;11.65;3.85;;;;;;;25.30;57.89;101555.38;5034506;28;20100;-70
2022/08/21 08:32:07;;;;;;;15.75;3.97;;;;;;;25.13;57.99;101552.19;5034611;28;20080;-70
2022/08/21 08:34:33;;;;;;;14.43;3.88;;;;;;;24.68;59.07;101551.91;5033214;28;20037;-70
2022/08/21 08:36:59;;;;;;;11.27;3.55;;;;;;;24.54;58.58;101554.28;5034248;28;20017;-69
2022/08/21 08:39:25;;;;;;;11.40;3.70;;;;;;;23.67;62.29;101552.31;5032913;28;20021;-71
2022/08/21 08:42:04;;;;;;;12.02;3.80;;;;;;;23.98;61.53;101546.16;5032976;28;20397;-70
2022/08/21 08:44:30;;;;;;;13.73;3.63;;;;;;;23.08;65.37;101548.78;5034004;28;20350;-70
2022/08/21 08:46:57;;;;;;;11.90;3.97;;;;;;;24.23;62.09;101553.38;5034089;28;20047;-70
2022/08/21 08:49:26;;;;;;;18.58;4.07;;;;;;;23.93;62.00;101550.63;5033961;28;20026;-70
2022/08/21 08:51:59;;;;;;;16.13;4.60;;;;;;;24.16;62.48;101549.38;5032692;28;20049;-70
2022/08/21 08:54:31;;;;;;;13.52;4.05;;;;;;;25.19;59.22;101545.88;5033827;28;20030;-68
2022/08/21 08:56:58;;;;;;;15.23;4.22;;;;;;;23.18;64.65;101553.31;5034117;28;20021;-69
2022/08/21 08:59:37;;;;;;;19.05;4.38;;;;;;;24.18;62.46;101539.38;5033821;28;20025;-70
2022/08/21 09:02:05;;;;;;;13.85;4.10;;;;;;;24.42;60.90;101544.97;5032555;28;20041;-71
2022/08/21 09:04:30;;;;;;;12.55;3.78;;;;;;;25.11;60.46;101546.38;5032453;28;20021;-70
2022/08/21 09:07:09;;;;;;;14.30;3.78;;;;;;;24.48;60.48;101542.09;5033868;28;20119;-70
2022/08/21 09:09:37;;;;;;;15.07;3.40;;;;;;;23.99;61.20;101546.94;5032439;28;20031;-71
2022/08/21 09:12:14;;;;;;;16.83;3.60;;;;;;;24.32;61.86;101535.97;5033564;28;20033;-70
2022/08/21 09:14:52;;;;;;;14.25;3.88;;;;;;;24.27;60.99;101538.59;5033625;28;20030;-69
2022/08/21 09:17:54;;;;;;;13.85;3.38;;;;;;;24.44;61.84;101541.03;5033493;28;20044;-71
2022/08/21 09:20:46;;;;;;;13.63;3.88;;;;;;;25.08;58.50;101538.97;5032292;28;20392;-69
2022/08/21 09:23:30;;;;;;;;;;;;;;;25.87;55.05;101545.47;5033937;28;20028;-70
2022/08/21 09:26:06;;;;;;;14.02;3.53;;;;;;;25.84;56.45;101541.50;5032103;28;20261;-69
2022/08/21 09:28:34;;;;;;;13.38;3.38;;;;;;;25.65;56.47;101541.25;5033274;28;20026;-70
2022/08/21 09:31:02;;;;;;;14.02;3.38;;;;;;;25.99;55.98;101538.00;5033401;28;20028;-70
2022/08/21 09:33:28;;;;;;;14.25;3.30;;;;;;;25.63;55.54;101547.88;5032013;28;20473;-70
2022/08/21 09:35:59;;;;;;;14.07;2.97;;;;;;;25.59;55.32;101542.34;5032155;28;20025;-68
2022/08/21 09:38:29;;;;;;;10.40;3.13;;;;;;;25.16;56.38;101541.91;5033325;28;20487;-69
2022/08/21 09:41:01;;;;;;;11.55;3.20;;;;;;;24.41;57.74;101538.09;5033255;28;20030;-69
2022/08/21 09:43:27;;;;;;;13.38;3.35;;;;;;;24.75;57.76;101536.59;5031875;28;20022;-69
2022/08/21 09:46:10;;;;;;;12.63;3.10;;;;;;;24.17;60.09;101543.88;5031938;28;20022;-69
2022/08/21 09:48:47;;;;;;;15.43;3.47;;;;;;;24.59;57.97;101542.13;5033144;28;20021;-69
2022/08/21 09:51:16;;;;;;;12.75;3.30;;;;;;;24.42;59.54;101537.84;5031701;28;20466;-68
2022/08/21 09:53:46;;;;;;;11.98;3.30;;;;;;;25.06;55.62;101533.13;5031827;28;20033;-69
2022/08/21 09:59:31;;;;;;;12.02;3.00;;;;;;;24.87;56.37;101525.75;5033375;28;20104;-70
2022/08/21 10:02:01;;;;;;;12.85;3.10;;;;;;;25.08;56.04;101528.38;5033243;28;20458;-81
2022/08/21 10:04:35;;;;;;;11.20;2.90;;;;;;;24.87;56.25;101527.63;5034559;28;20373;-80
2022/08/21 10:07:09;;;;;;;12.70;3.03;;;;;;;25.87;54.16;101533.00;5034313;28;20388;-80
2022/08/21 10:09:35;;;;;;;11.27;2.75;;;;;;;26.94;50.76;101528.91;5035051;28;20061;-80
2022/08/21 10:12:03;;;;;;;10.50;2.90;;;;;;;26.68;50.73;101533.63;5031848;28;20022;-74
2022/08/21 10:14:44;;;;;;;8.20;2.55;;;;;;;26.72;50.41;101526.69;5032802;28;20029;-74
2022/08/21 10:17:31;;;;;;;9.75;2.40;;;;;;;26.89;49.59;101528.16;5033008;28;20025;-74
2022/08/21 10:20:08;;;;;;;12.02;2.95;;;;;;;26.81;50.19;101521.56;5031969;28;20025;-74
2022/08/21 10:22:53;;;;;;;13.70;3.20;;;;;;;27.42;51.51;101518.38;5032957;28;20026;-74
2022/08/21 10:25:53;;;;;;;12.35;2.70;;;;;;;27.06;47.96;101525.09;5032687;28;20436;-73
2022/08/21 10:28:44;;;;;;;11.88;2.63;;;;;;;25.69;52.63;101520.31;5002097;28;20041;-74
2022/08/21 10:31:27;;;;;;;15.55;3.08;;;;;;;25.39;54.12;101516.72;5031541;28;20030;-74
2022/08/21 10:34:08;;;;;;;;;;;;;;;24.53;55.80;101523.63;5033116;28;20477;-74
2022/08/21 10:37:01;;;;;;;12.55;2.80;;;;;;;24.48;57.22;101525.47;5032691;28;19909;-75
2022/08/21 10:39:36;;;;;;;11.20;2.80;;;;;;;23.92;58.71;101530.56;5032654;28;20071;-74
2022/08/21 10:42:28;;;;;;;11.32;2.85;;;;;;;24.40;57.76;101518.81;5032634;28;20045;-74
2022/08/21 10:45:31;;;;;;;11.00;2.65;;;;;;;26.14;55.29;101517.78;5025845;28;20107;-74
2022/08/21 10:48:04;;;;;;;15.32;2.92;;;;;;;26.30;52.83;101517.44;5033057;28;20045;-74
2022/08/21 10:50:53;;;;;;;9.05;3.20;;;;;;;25.57;54.90;101517.19;5036211;28;20080;-74
2022/08/21 10:53:42;;;;;;;6.90;2.33;;;;;;;24.86;55.97;101512.78;5036322;28;20026;-74
2022/08/21 10:56:19;;;;;;;13.75;3.30;;;;;;;24.28;57.84;101519.06;5036204;28;20392;-74
2022/08/21 10:59:07;;;;;;;9.55;2.95;;;;;;;24.03;60.30;101521.63;5036064;28;20021;-74
2022/08/21 11:01:50;;;;;;;14.57;3.20;;;;;;;24.10;61.05;101519.53;5035835;28;20025;-74
2022/08/21 11:04:24;;;;;;;14.57;3.20;;;;;;;25.39;56.55;101515.94;5035958;28;20436;-74
2022/08/21 11:06:57;;;;;;;14.95;3.30;;;;;;;25.73;55.18;101508.16;5035693;28;20087;-73
2022/08/21 11:09:25;;;;;;;9.88;2.95;;;;;;;27.13;50.71;101509.63;5035932;28;20060;-74
2022/08/21 11:12:03;;;;;;;18.17;3.55;;;;;;;26.18;51.82;101508.22;5035888;28;20087;-73
2022/08/21 11:14:51;;;;;;;9.75;2.90;;;;;;;26.64;49.36;101515.88;5035797;28;20025;-73
2022/08/21 11:17:24;;;;;;;13.07;3.30;;;;;;;26.77;49.13;101502.78;5035980;28;20036;-73
2022/08/21 11:19:56;;;;;;;;;;;;;;;27.35;49.22;101509.94;5036071;28;20093;-74
2022/08/21 11:22:54;;;;;;;11.70;2.60;;;;;;;27.13;47.92;101507.78;5034498;28;19909;-74
2022/08/21 11:25:31;;;;;;;11.85;2.88;;;;;;;26.99;48.12;101509.50;5035824;28;20101;-74
2022/08/21 11:28:02;;;;;;;7.40;2.30;;;;;;;27.96;45.22;101526.25;5034374;28;20034;-74
2022/08/21 11:30:50;;;;;;;10.07;2.72;;;;;;;27.74;45.21;101519.59;5034472;28;20185;-74